Flight Track Log - Related Links

Times and Time Zones

All times are in EDT time to prevent confusion due to time zone crossing. See the SWA3313 flight status page for this flight to view local times or setup timezone preferences in your user account.

Time Position Orientation Groundspeed Altitude Reporting Facility
EDT Latitude Longitude Course Direction KTS MPH feet Rate Location/Type
Wed 06:47:49 PM 42.9167 -71.4167 216° Southwest 149 171 1,100  Level KA90
Wed 06:48:13 PM 42.9000 -71.4333 216° Southwest 152 175 1,900 2,615 Climbing KA90
Wed 06:49:07 PM 42.8500 -71.4333 180° South 209 241 4,500 2,754 Climbing KA90
Wed 06:51:16 PM 42.9425 -71.2744 51° Northeast 286 329 10,300 2,762 Climbing Boston Center
Wed 06:52:16 PM 43.0186 -71.1708 45° Northeast 335 386 13,200 2,900 Climbing Boston Center
Wed 06:53:16 PM 43.0694 -71.0561 59° Northeast 391 450 16,100 3,050 Climbing Boston Center
Wed 06:54:16 PM 43.0217 -70.9236 116° Southeast 344 396 19,300 3,100 Climbing Boston Center
Wed 06:55:16 PM 42.9197 -70.9206 179° South 274 315 22,300 2,650 Climbing Boston Center
Wed 06:56:16 PM 42.8161 -70.9656 198° South 305 351 24,600 2,000 Climbing Boston Center
Wed 06:57:16 PM 42.7189 -71.0383 209° Southwest 352 405 26,300 2,100 Climbing Boston Center
Wed 06:58:16 PM 42.6600 -71.1697 239° Southwest 373 429 28,800 1,850 Climbing Boston Center
Wed 06:59:16 PM 42.6031 -71.2950 238° Southwest 386 444 30,000 600 Climbing Boston Center
Wed 07:00:16 PM 42.5439 -71.4228 238° Southwest 396 456 30,000  Level Boston Center
Wed 07:01:16 PM 42.4864 -71.5475 238° Southwest 396 456 30,000  Level Boston Center
Wed 07:02:16 PM 42.4250 -71.6694 236° Southwest 396 456 30,000  Level Boston Center
Wed 07:03:16 PM 42.3672 -71.7911 237° Southwest 396 456 30,000  Level Boston Center
Wed 07:04:16 PM 42.3094 -71.9150 238° Southwest 391 450 30,000  Level Boston Center
Wed 07:05:16 PM 42.2517 -72.0361 237° Southwest 391 450 30,000  Level Boston Center
Wed 07:06:16 PM 42.1833 -72.1514 231° Southwest 396 456 30,000  Level Boston Center
Wed 07:07:16 PM 42.1147 -72.2639 231° Southwest 396 456 30,000  Level Boston Center
Wed 07:08:16 PM 42.0461 -72.3731 230° Southwest 396 456 30,000  Level Boston Center
Wed 07:09:16 PM 41.9753 -72.4847 230° Southwest 396 456 30,000  Level Boston Center
Wed 07:10:16 PM 41.9064 -72.5964 230° Southwest 396 456 30,000  Level Boston Center
Wed 07:11:16 PM 41.8394 -72.7047 230° Southwest 396 456 30,000  Level Boston Center
Wed 07:12:16 PM 41.7683 -72.8186 230° Southwest 396 456 30,000  Level Boston Center
Wed 07:13:16 PM 41.7117 -72.9044 229° Southwest 396 456 30,000  Level Boston Center
Wed 07:14:16 PM 41.6278 -73.0400 230° Southwest 401 461 30,000  Level Boston Center
Wed 07:15:16 PM 41.5478 -73.1667 230° Southwest 407 468 30,000  Level Boston Center
Wed 07:17:39 PM 41.3817 -73.4283 230° Southwest 401 461 30,000  Level New York Center
Wed 07:18:40 PM 41.3083 -73.5414 229° Southwest 411 473 30,000  Level New York Center
Wed 07:19:41 PM 41.2367 -73.6600 231° Southwest 411 473 30,000  Level New York Center
Wed 07:20:41 PM 41.1669 -73.7781 232° Southwest 411 473 30,000  Level New York Center
Wed 07:21:39 PM 41.0972 -73.8961 232° Southwest 411 473 30,000  Level New York Center
Wed 07:22:41 PM 41.0275 -74.0111 231° Southwest 411 473 30,000  Level New York Center
Wed 07:23:39 PM 40.9575 -74.1314 232° Southwest 411 473 30,000 -353 Level New York Center
Wed 07:24:40 PM 40.8856 -74.2403 229° Southwest 411 473 29,300 -893 Descending New York Center
Wed 07:25:40 PM 40.8178 -74.3494 231° Southwest 406 467 28,200 -650 Descending New York Center
Wed 07:26:40 PM 40.7539 -74.4639 234° Southwest 398 458 28,000 -98 Descending New York Center
Wed 07:27:43 PM 40.6881 -74.5697 231° Southwest 387 445 28,000  Level New York Center
Wed 07:28:41 PM 40.6197 -74.6808 231° Southwest 392 451 28,000  Level New York Center
Wed 07:29:41 PM 40.5472 -74.7914 229° Southwest 397 457 28,000 -51 Level New York Center
Wed 07:30:38 PM 40.4728 -74.8989 228° Southwest 397 457 27,900 -864 Descending New York Center
Wed 07:31:39 PM 40.3981 -75.0061 228° Southwest 397 457 26,300 -2,016 Descending New York Center
Wed 07:32:40 PM 40.3233 -75.1103 227° Southwest 397 457 23,800 -2,529 Descending New York Center
Wed 07:33:40 PM 40.2531 -75.2094 227° Southwest 397 457 21,200 -2,380 Descending New York Center
Wed 07:34:41 PM 40.1761 -75.3131 226° Southwest 377 434 19,000 -1,091 Descending New York Center
Wed 07:35:41 PM 40.1189 -75.3908 226° Southwest 360 414 19,000 -356 Level New York Center
Wed 07:36:39 PM 40.0503 -75.4892 228° Southwest 343 395 18,300 -857 Descending New York Center
Wed 07:37:40 PM 39.9931 -75.5694 227° Southwest 343 395 17,300 -639 Descending New York Center
Wed 07:38:41 PM 39.9267 -75.6597 226° Southwest 332 382 17,000 -149 Descending New York Center
Wed 07:39:41 PM 39.8794 -75.7456 234° Southwest 332 382 17,000 -203 Level New York Center
Wed 07:40:39 PM 39.8250 -75.8472 235° Southwest 322 371 16,600 -1,443 Descending New York Center
Wed 07:42:44 PM 39.7167 -76.0333 233° Southwest 293 337 12,600 -1,853 Descending Potomac TRACON
Wed 07:43:50 PM 39.6833 -76.1333 247° West 287 330 10,700 -1,350 Descending Potomac TRACON
Wed 07:44:44 PM 39.6333 -76.2000 226° Southwest 247 284 9,900 -1,500 Descending Potomac TRACON
Wed 07:45:50 PM 39.6000 -76.2833 243° Southwest 253 291 7,700 -1,438 Descending Potomac TRACON
Wed 07:46:45 PM 39.5500 -76.3333 218° Southwest 244 281 7,000 -368 Descending Potomac TRACON
Wed 07:47:44 PM 39.5333 -76.4167 255° West 238 274 7,000  Level Potomac TRACON
Wed 07:48:45 PM 39.5167 -76.5000 255° West 239 275 7,000 -446 Level Potomac TRACON
Wed 07:49:45 PM 39.4833 -76.5833 243° Southwest 246 283 6,100 -1,158 Descending Potomac TRACON
Wed 07:50:39 PM 39.4500 -76.6333 229° Southwest 235 270 4,800 -1,050 Descending Potomac TRACON
Wed 07:51:45 PM 39.4167 -76.7167 243° Southwest 233 268 4,000 -381 Descending Potomac TRACON
Wed 07:52:45 PM 39.3833 -76.8000 243° Southwest 236 272 4,000 -500 Level Potomac TRACON
Wed 07:53:45 PM 39.3500 -76.8667 237° Southwest 237 273 3,000 -526 Descending Potomac TRACON
Wed 07:54:39 PM 39.3167 -76.9333 237° Southwest 215 247 3,000  Level Potomac TRACON
Wed 07:55:39 PM 39.2833 -76.9667 218° Southwest 205 236 3,000 -150 Level Potomac TRACON
Wed 07:56:39 PM 39.2500 -76.9167 131° Southeast 183 211 2,700 -600 Descending Potomac TRACON
Wed 07:57:39 PM 39.2167 -76.8667 131° Southeast 177 204 1,800 -600 Descending Potomac TRACON
Wed 07:58:39 PM 39.1833 -76.8167 131° Southeast 173 199 1,500 -300 Descending Potomac TRACON
Wed 07:59:39 PM 39.1833 -76.7667 90° East 178 205 1,200 -500 Descending Potomac TRACON
Wed 08:00:39 PM 39.1833 -76.7000 90° East 145 167 500 -700 Descending Potomac TRACON
Wed 08:02:00 PM 39.1754 -76.6683 218° Southwest  Level Estimated
Wed 08:09:00 PM 39.1754 -76.6683 270° West  Level Estimated
Wed 08:10:00 PM 39.1754 -76.6683 270° West  Level Estimated
Wed 08:11:00 PM 39.1754 -76.6683 270° West  Level Estimated
Wed 08:12:00 PM 39.1754 -76.6683 270° West  Level Estimated

Login

Don't have an account? Register now (free) for customized features, flight alerts, and more!